createdAt,value
2023-04-12T00:04:00.340Z,0.53
2023-04-12T00:09:04.174Z,0.67
2023-04-12T00:14:07.278Z,0.73
2023-04-12T00:19:11.739Z,1.10
2023-04-12T00:24:15.064Z,0.80
2023-04-12T00:29:18.194Z,0.60
2023-04-12T00:34:22.616Z,0.50
2023-04-12T00:39:26.057Z,0.73
2023-04-12T00:44:29.124Z,0.80
2023-04-12T00:49:35.411Z,0.83
2023-04-12T00:54:39.639Z,0.60
2023-04-12T00:59:42.759Z,0.60
2023-04-12T01:04:50.572Z,0.70
2023-04-12T01:10:02.243Z,0.70
2023-04-12T01:15:10.703Z,0.70
2023-04-12T01:20:18.575Z,0.80
2023-04-12T01:25:39.316Z,0.60
2023-04-12T01:30:44.296Z,0.77
2023-04-12T01:35:47.977Z,0.50
2023-04-12T01:40:51.209Z,0.70
2023-04-12T01:45:56.475Z,0.60
2023-04-12T01:51:06.219Z,0.80
2023-04-12T01:56:11.540Z,0.67
2023-04-12T02:01:19.753Z,0.93
2023-04-12T02:06:23.966Z,0.93
2023-04-12T02:11:29.064Z,0.87
2023-04-12T02:16:34.210Z,0.90
2023-04-12T02:21:42.220Z,0.97
2023-04-12T02:26:45.925Z,0.80
2023-04-12T02:31:51.334Z,1.13
2023-04-12T02:36:55.890Z,0.87
2023-04-12T02:41:59.109Z,1.00
2023-04-12T02:47:03.773Z,1.00
2023-04-12T02:52:09.278Z,1.37
2023-04-12T02:57:21.114Z,1.10
2023-04-12T03:02:26.014Z,0.90
2023-04-12T03:07:36.677Z,0.83
2023-04-12T03:12:41.140Z,0.93
2023-04-12T03:17:53.658Z,1.10
2023-04-12T03:23:01.482Z,0.63
2023-04-12T03:28:06.823Z,1.10
2023-04-12T03:33:24.111Z,1.13
2023-04-12T03:38:34.250Z,1.07
2023-04-12T03:43:38.381Z,1.57
2023-04-12T03:48:54.392Z,0.70
2023-04-12T03:53:59.679Z,1.37
2023-04-12T03:59:03.366Z,1.10
2023-04-12T04:04:09.471Z,1.00
2023-04-12T04:09:13.192Z,1.20
2023-04-12T04:14:16.550Z,1.10
2023-04-12T04:19:21.919Z,1.20
2023-04-12T04:24:25.978Z,1.00
2023-04-12T04:29:33.691Z,1.50
2023-04-12T04:34:41.440Z,0.93
2023-04-12T04:39:48.773Z,1.33
2023-04-12T04:44:52.371Z,1.00
2023-04-12T04:49:57.632Z,1.10
2023-04-12T04:55:04.747Z,0.80
2023-04-12T05:00:14.089Z,0.83
2023-04-12T05:05:23.236Z,1.00
2023-04-12T05:10:30.974Z,0.87
2023-04-12T05:15:41.666Z,1.13
2023-04-12T05:20:48.345Z,1.17
2023-04-12T05:25:51.735Z,1.03
2023-04-12T05:30:56.612Z,0.80
2023-04-12T05:36:09.627Z,0.80
2023-04-12T05:41:12.797Z,0.63
2023-04-12T05:46:16.209Z,0.70
2023-04-12T05:51:37.618Z,1.63
2023-04-12T05:56:45.772Z,0.87
2023-04-12T06:01:49.062Z,0.77
2023-04-12T06:06:56.442Z,0.87
2023-04-12T06:11:59.663Z,1.00
2023-04-12T06:17:02.990Z,0.60
2023-04-12T06:22:07.451Z,1.30
2023-04-12T06:27:10.789Z,1.57
2023-04-12T06:32:14.296Z,0.80
2023-04-12T06:37:19.542Z,0.80
2023-04-12T06:42:22.631Z,0.70
2023-04-12T06:47:26.408Z,1.20
2023-04-12T06:52:31.099Z,1.30
2023-04-12T06:57:34.378Z,0.80
2023-04-12T07:02:38.844Z,0.73
2023-04-12T07:07:43.497Z,0.80
2023-04-12T07:12:46.684Z,0.87
2023-04-12T07:17:49.796Z,0.60
2023-04-12T07:22:54.588Z,0.80
2023-04-12T07:27:57.688Z,0.90
2023-04-12T07:33:18.391Z,0.70
2023-04-12T07:38:24.278Z,0.70
2023-04-12T07:43:27.628Z,0.53
2023-04-12T07:48:30.865Z,0.67
2023-04-12T07:53:35.266Z,0.67
2023-04-12T07:58:38.656Z,0.50
2023-04-12T08:03:41.811Z,0.70
2023-04-12T08:08:46.327Z,0.60
2023-04-12T08:13:49.507Z,0.40
2023-04-12T08:18:52.631Z,0.50
2023-04-12T08:23:57.508Z,0.60
2023-04-12T08:29:00.899Z,0.63
2023-04-12T08:34:03.979Z,0.60
2023-04-12T08:39:09.375Z,0.50
2023-04-12T08:44:13.135Z,0.30
2023-04-12T08:49:18.637Z,0.50
2023-04-12T08:54:23.174Z,0.40
2023-04-12T08:59:28.206Z,0.50
2023-04-12T09:04:31.477Z,0.40
2023-04-12T09:09:46.528Z,0.40
2023-04-12T09:14:49.930Z,0.40
2023-04-12T09:19:53.445Z,0.30
2023-04-12T09:24:58.168Z,0.50
2023-04-12T09:30:09.152Z,0.30
2023-04-12T09:35:12.444Z,0.40
2023-04-12T09:40:16.925Z,0.37
2023-04-12T09:45:21.707Z,0.40
2023-04-12T09:50:26.594Z,0.30
2023-04-12T09:55:33.001Z,0.40
2023-04-12T10:00:37.073Z,0.40
2023-04-12T10:05:41.174Z,0.40
2023-04-12T10:10:47.199Z,0.30
2023-04-12T10:15:51.856Z,0.40
2023-04-12T10:20:55.355Z,0.40
2023-04-12T10:26:04.229Z,0.43
2023-04-12T10:31:28.202Z,0.40
2023-04-12T10:36:53.371Z,0.30
2023-04-12T10:42:23.510Z,0.50
2023-04-12T10:48:01.788Z,0.50
2023-04-12T10:53:27.188Z,0.30
2023-04-12T10:58:59.573Z,0.47
2023-04-12T11:04:18.163Z,0.30
2023-04-12T11:09:38.293Z,0.20
2023-04-12T11:14:47.526Z,0.20
2023-04-12T11:19:53.263Z,0.27
2023-04-12T11:24:57.842Z,0.20
2023-04-12T11:30:02.785Z,0.10
2023-04-12T11:35:08.606Z,0.30
2023-04-12T11:40:13.509Z,0.20
2023-04-12T11:45:22.295Z,0.27
2023-04-12T11:50:30.703Z,0.33
2023-04-12T11:55:33.856Z,0.20
2023-04-12T12:00:38.786Z,0.30
2023-04-12T12:05:43.754Z,0.30
2023-04-12T12:15:58.599Z,0.30
2023-04-12T12:21:01.763Z,0.30
2023-04-12T12:26:18.527Z,0.30
2023-04-12T12:31:27.868Z,0.30
2023-04-12T12:36:33.316Z,0.40
2023-04-12T12:41:36.852Z,0.50
2023-04-12T12:46:53.644Z,0.30
2023-04-12T12:52:00.463Z,0.33
2023-04-12T12:57:04.345Z,0.40
2023-04-12T13:02:09.093Z,0.50
2023-04-12T13:07:12.208Z,0.20
2023-04-12T13:12:15.755Z,0.33
2023-04-12T13:17:20.647Z,0.30
2023-04-12T13:22:24.070Z,0.30
2023-04-12T13:27:27.605Z,0.50
2023-04-12T13:32:32.095Z,0.23
2023-04-12T13:37:35.622Z,0.20
2023-04-12T13:42:38.733Z,0.23
2023-04-12T13:47:43.263Z,0.40
2023-04-12T13:52:46.425Z,0.60
2023-04-12T13:57:49.516Z,0.40
2023-04-12T14:02:54.118Z,0.40
2023-04-12T14:07:57.352Z,0.27
2023-04-12T14:13:00.536Z,0.50
2023-04-12T14:18:05.514Z,0.40
2023-04-12T14:23:08.645Z,0.60
2023-04-12T14:28:16.507Z,0.60
2023-04-12T14:33:20.993Z,0.40
2023-04-12T14:38:24.176Z,0.50
2023-04-12T14:43:27.387Z,0.80
2023-04-12T14:48:31.809Z,0.50
2023-04-12T14:53:35.180Z,0.50
2023-04-12T14:58:38.368Z,0.40
2023-04-12T15:03:44.458Z,0.50
2023-04-12T15:08:49.465Z,0.37
2023-04-12T15:13:53.329Z,0.60
2023-04-12T15:19:00.453Z,0.50
2023-04-12T15:24:04.271Z,0.50
2023-04-12T15:29:07.932Z,0.50
2023-04-12T15:34:13.336Z,0.50
2023-04-12T15:39:16.414Z,0.57
2023-04-12T15:44:19.676Z,0.20
2023-04-12T15:49:25.422Z,0.37
2023-04-12T15:54:28.486Z,0.50
2023-04-12T15:59:31.738Z,0.70
2023-04-12T16:04:37.362Z,0.50
2023-04-12T16:09:40.717Z,0.40
2023-04-12T16:14:43.907Z,0.40
2023-04-12T16:19:48.576Z,0.23
2023-04-12T16:24:52.348Z,0.20
2023-04-12T16:29:55.406Z,0.30
2023-04-12T16:35:00.370Z,0.40
2023-04-12T16:40:06.849Z,0.40
2023-04-12T16:45:14.378Z,0.43
2023-04-12T16:50:19.393Z,0.37
2023-04-12T16:55:22.841Z,0.27
2023-04-12T17:00:29.018Z,0.20
2023-04-12T17:05:33.852Z,0.20
2023-04-12T17:10:37.827Z,0.27
2023-04-12T17:15:40.910Z,0.20
2023-04-12T17:20:45.738Z,0.13
2023-04-12T17:25:49.035Z,0.10
2023-04-12T17:30:52.248Z,0.30
2023-04-12T17:35:56.846Z,0.20
2023-04-12T17:40:59.946Z,0.10
2023-04-12T17:46:03.942Z,0.10
2023-04-12T17:51:09.760Z,0.10
2023-04-12T17:56:12.950Z,0.20
2023-04-12T18:01:17.030Z,0.20
2023-04-12T18:06:21.538Z,0.20
2023-04-12T18:11:25.542Z,0.20
2023-04-12T18:16:29.036Z,0.23
2023-04-12T18:21:33.758Z,0.10
2023-04-12T18:26:37.044Z,0.30
2023-04-12T18:31:40.510Z,0.40
2023-04-12T18:36:45.105Z,0.40
2023-04-12T18:41:48.249Z,0.50
2023-04-12T18:46:51.724Z,0.57
2023-04-12T18:51:58.604Z,0.80
2023-04-12T18:57:03.435Z,0.63
2023-04-12T19:02:07.437Z,0.50
2023-04-12T19:07:11.971Z,0.50
2023-04-12T19:12:15.380Z,0.60
2023-04-12T19:17:22.316Z,0.50
2023-04-12T19:22:28.493Z,0.53
2023-04-12T19:27:31.629Z,0.40
2023-04-12T19:32:34.756Z,0.40
2023-04-12T19:37:39.267Z,0.60
2023-04-12T19:42:42.753Z,0.77
2023-04-12T19:47:45.998Z,0.50
2023-04-12T19:52:50.495Z,0.70
2023-04-12T19:57:54.051Z,0.57
2023-04-12T20:02:57.179Z,0.63
2023-04-12T20:08:01.943Z,0.80
2023-04-12T20:13:09.640Z,0.53
2023-04-12T20:18:13.507Z,0.70
2023-04-12T20:23:18.269Z,0.77
2023-04-12T20:28:21.400Z,0.60
2023-04-12T20:33:24.564Z,0.70
2023-04-12T20:38:30.625Z,0.70
2023-04-12T20:43:34.756Z,0.60
2023-04-12T20:48:38.368Z,0.50
2023-04-12T20:53:45.584Z,0.50
2023-04-12T20:58:49.700Z,0.50
2023-04-12T21:03:55.826Z,0.40
2023-04-12T21:09:00.573Z,0.40
2023-04-12T21:14:03.772Z,0.80
2023-04-12T21:19:08.214Z,0.60
2023-04-12T21:24:13.121Z,0.50
2023-04-12T21:29:16.335Z,0.40
2023-04-12T21:34:21.758Z,0.67
2023-04-12T21:39:26.290Z,0.50
2023-04-12T21:44:29.631Z,0.30
2023-04-12T21:49:34.156Z,0.50
2023-04-12T21:54:38.547Z,0.40
2023-04-12T21:59:42.734Z,0.23
2023-04-12T22:04:45.864Z,0.40
2023-04-12T22:09:54.039Z,0.30
2023-04-12T22:14:57.690Z,0.40
2023-04-12T22:20:01.000Z,0.30
2023-04-12T22:25:07.952Z,0.30
2023-04-12T22:30:11.526Z,0.30
2023-04-12T22:35:15.817Z,0.30
2023-04-12T22:40:20.510Z,0.20
2023-04-12T22:45:23.624Z,0.30
2023-04-12T22:50:26.764Z,0.30
2023-04-12T22:55:31.380Z,0.20
2023-04-12T23:00:35.169Z,0.30
2023-04-12T23:05:38.919Z,0.40
2023-04-12T23:10:43.429Z,0.40
2023-04-12T23:15:46.740Z,0.33
2023-04-12T23:20:51.233Z,0.50
2023-04-12T23:25:56.193Z,0.53
2023-04-12T23:31:01.556Z,0.40
2023-04-12T23:36:05.417Z,0.40
2023-04-12T23:41:12.522Z,0.40
2023-04-12T23:46:15.732Z,0.50
2023-04-12T23:51:18.795Z,0.50
2023-04-12T23:56:23.297Z,0.60
